createdAt,value
2019-05-18T00:02:05.497Z,20.53
2019-05-18T00:04:35.385Z,19.57
2019-05-18T00:07:05.063Z,18.63
2019-05-18T00:09:34.757Z,16.83
2019-05-18T00:12:04.609Z,20.17
2019-05-18T00:14:34.303Z,20.23
2019-05-18T00:17:03.982Z,19.90
2019-05-18T00:19:33.878Z,19.83
2019-05-18T00:22:03.540Z,19.47
2019-05-18T00:24:33.260Z,20.07
2019-05-18T00:27:02.942Z,23.30
2019-05-18T00:29:32.619Z,22.00
2019-05-18T00:32:02.346Z,20.53
2019-05-18T00:34:32.124Z,21.13
2019-05-18T00:37:01.807Z,19.03
2019-05-18T00:39:31.722Z,20.67
2019-05-18T00:42:01.448Z,20.97
2019-05-18T00:44:31.249Z,20.07
2019-05-18T00:47:00.952Z,19.37
2019-05-18T00:49:30.664Z,20.80
2019-05-18T00:52:00.466Z,23.80
2019-05-18T00:54:30.153Z,22.60
2019-05-18T00:56:59.904Z,22.77
2019-05-18T00:59:29.759Z,21.57
2019-05-18T01:01:59.425Z,20.77
2019-05-18T01:04:29.238Z,20.60
2019-05-18T01:06:58.912Z,21.53
2019-05-18T01:09:28.770Z,21.13
2019-05-18T01:11:58.548Z,23.97
2019-05-18T01:14:28.227Z,24.40
2019-05-18T01:16:57.893Z,20.53
2019-05-18T01:19:27.624Z,22.37
2019-05-18T01:21:58.318Z,23.43
2019-05-18T01:24:28.010Z,19.37
2019-05-18T01:26:57.706Z,22.70
2019-05-18T01:29:27.468Z,22.80
2019-05-18T01:31:57.127Z,24.43
2019-05-18T01:34:27.900Z,23.57
2019-05-18T01:36:57.587Z,23.03
2019-05-18T01:39:27.299Z,23.03
2019-05-18T01:41:56.970Z,25.17
2019-05-18T01:44:26.996Z,24.30
2019-05-18T01:46:56.670Z,23.20
2019-05-18T01:49:26.349Z,25.03
2019-05-18T01:51:56.032Z,27.77
2019-05-18T01:54:25.735Z,22.17
2019-05-18T01:56:55.412Z,25.73
2019-05-18T01:59:25.073Z,24.83
2019-05-18T02:01:54.756Z,23.77
2019-05-18T02:04:24.418Z,25.23
2019-05-18T02:06:54.127Z,26.97
2019-05-18T02:09:23.802Z,25.60
2019-05-18T02:11:53.510Z,29.83
2019-05-18T02:14:23.184Z,27.90
2019-05-18T02:16:52.896Z,25.57
2019-05-18T02:19:24.821Z,26.30
2019-05-18T02:21:54.119Z,25.40
2019-05-18T02:24:23.796Z,28.50
2019-05-18T02:26:53.520Z,27.13
2019-05-18T02:29:23.282Z,24.80
2019-05-18T02:31:53.028Z,25.83
2019-05-18T02:34:22.702Z,26.63
2019-05-18T02:36:52.477Z,28.87
2019-05-18T02:39:22.157Z,29.93
2019-05-18T02:41:51.924Z,27.73
2019-05-18T02:44:21.715Z,29.13
2019-05-18T02:46:51.411Z,26.90
2019-05-18T02:49:21.089Z,26.03
2019-05-18T02:51:50.820Z,30.60
2019-05-18T02:54:20.493Z,28.73
2019-05-18T02:56:50.246Z,28.47
2019-05-18T02:59:19.926Z,28.80
2019-05-18T03:01:49.642Z,27.53
2019-05-18T03:04:19.354Z,26.27
2019-05-18T03:06:49.193Z,25.90
2019-05-18T03:09:18.848Z,26.80
2019-05-18T03:11:48.682Z,29.27
2019-05-18T03:14:18.612Z,27.80
2019-05-18T03:16:48.320Z,27.80
2019-05-18T03:19:18.079Z,27.90
2019-05-18T03:21:48.167Z,26.17
2019-05-18T03:24:17.825Z,29.07
2019-05-18T03:26:47.498Z,26.37
2019-05-18T03:29:17.438Z,27.00
2019-05-18T03:31:47.125Z,29.27
2019-05-18T03:34:16.801Z,32.10
2019-05-18T03:36:46.796Z,30.97
2019-05-18T03:39:16.565Z,29.10
2019-05-18T03:41:46.330Z,27.53
2019-05-18T03:44:16.031Z,26.97
2019-05-18T03:46:45.713Z,28.90
2019-05-18T03:49:25.979Z,27.93
2019-05-18T03:51:46.763Z,26.73
2019-05-18T03:54:16.425Z,29.00
2019-05-18T03:56:46.106Z,26.20
2019-05-18T03:59:15.777Z,26.67
2019-05-18T04:01:45.501Z,26.07
2019-05-18T04:04:18.475Z,23.43
2019-05-18T04:06:46.636Z,24.03
2019-05-18T04:09:16.345Z,23.37
2019-05-18T04:11:46.014Z,21.37
2019-05-18T04:14:15.688Z,22.47
2019-05-18T04:16:45.414Z,25.10
2019-05-18T04:19:15.108Z,23.77
2019-05-18T04:21:44.815Z,21.73
2019-05-18T04:24:14.529Z,20.23
2019-05-18T04:26:44.251Z,22.23
2019-05-18T04:29:13.940Z,20.37
2019-05-18T04:31:43.659Z,20.97
2019-05-18T04:34:13.334Z,21.00
2019-05-18T04:36:43.041Z,22.27
2019-05-18T04:39:12.709Z,23.23
2019-05-18T04:41:42.417Z,19.20
2019-05-18T04:44:12.116Z,20.13
2019-05-18T04:46:41.824Z,21.50
2019-05-18T04:49:11.521Z,22.20
2019-05-18T04:51:41.229Z,20.03
2019-05-18T04:54:10.974Z,19.97
2019-05-18T04:56:43.022Z,20.63
2019-05-18T04:59:12.105Z,19.60
2019-05-18T05:01:41.878Z,21.47
2019-05-18T05:04:11.563Z,22.80
2019-05-18T05:06:41.258Z,20.67
2019-05-18T05:09:10.959Z,23.00
2019-05-18T05:11:40.643Z,20.27
2019-05-18T05:14:10.796Z,20.60
2019-05-18T05:16:40.472Z,18.83
2019-05-18T05:19:10.253Z,21.87
2019-05-18T05:21:39.930Z,18.20
2019-05-18T05:24:09.661Z,21.17
2019-05-18T05:26:39.882Z,18.90
2019-05-18T05:29:09.748Z,20.47
2019-05-18T05:31:39.455Z,20.27
2019-05-18T05:34:09.174Z,21.60
2019-05-18T05:36:38.875Z,20.93
2019-05-18T05:39:08.563Z,20.93
2019-05-18T05:41:38.238Z,21.90
2019-05-18T05:44:07.934Z,23.30
2019-05-18T05:46:37.687Z,20.90
2019-05-18T05:49:07.359Z,20.30
2019-05-18T05:51:37.031Z,22.80
2019-05-18T05:54:07.848Z,20.70
2019-05-18T05:56:37.520Z,21.70
2019-05-18T05:59:07.209Z,23.67
2019-05-18T06:01:36.900Z,20.07
2019-05-18T06:04:07.661Z,23.07
2019-05-18T06:06:37.347Z,23.40
2019-05-18T06:09:08.102Z,23.10
2019-05-18T06:11:37.782Z,21.30
2019-05-18T06:14:30.685Z,23.00
2019-05-18T06:17:00.801Z,20.73
2019-05-18T06:19:30.510Z,23.07
2019-05-18T06:22:00.263Z,21.13
2019-05-18T06:24:30.007Z,20.93
2019-05-18T06:26:59.671Z,21.67
2019-05-18T06:29:29.760Z,19.37
2019-05-18T06:31:59.423Z,21.03
2019-05-18T06:34:29.252Z,20.20
2019-05-18T06:36:58.971Z,23.07
2019-05-18T06:39:28.688Z,21.33
2019-05-18T06:41:58.340Z,18.20
2019-05-18T06:44:28.024Z,19.27
2019-05-18T06:46:57.814Z,21.50
2019-05-18T06:49:27.511Z,18.87
2019-05-18T06:51:57.513Z,17.30
2019-05-18T06:54:27.205Z,15.60
2019-05-18T06:56:59.608Z,17.03
2019-05-18T06:59:29.588Z,17.23
2019-05-18T07:01:59.299Z,17.83
2019-05-18T07:04:29.053Z,18.63
2019-05-18T07:06:58.751Z,18.43
2019-05-18T07:09:28.441Z,17.83
2019-05-18T07:11:58.160Z,19.07
2019-05-18T07:14:27.844Z,16.73
2019-05-18T07:16:57.699Z,17.77
2019-05-18T07:19:27.479Z,17.33
2019-05-18T07:21:57.150Z,17.63
2019-05-18T07:24:26.838Z,17.63
2019-05-18T07:26:56.549Z,17.87
2019-05-18T07:29:26.249Z,21.37
2019-05-18T07:31:55.955Z,19.57
2019-05-18T07:34:26.621Z,18.47
2019-05-18T07:36:56.685Z,17.17
2019-05-18T07:39:26.617Z,18.50
2019-05-18T07:41:56.285Z,20.33
2019-05-18T07:44:25.998Z,13.43
2019-05-18T07:46:55.656Z,17.10
2019-05-18T07:49:25.344Z,13.47
2019-05-18T07:51:55.548Z,16.33
2019-05-18T07:54:25.237Z,18.13
2019-05-18T07:56:54.896Z,17.47
2019-05-18T07:59:24.636Z,15.97
2019-05-18T08:01:54.394Z,15.40
2019-05-18T08:04:24.274Z,17.37
2019-05-18T08:06:53.937Z,13.90
2019-05-18T08:09:23.639Z,14.87
2019-05-18T08:11:53.289Z,14.23
2019-05-18T08:14:22.978Z,16.17
2019-05-18T08:16:52.655Z,12.17
2019-05-18T08:19:22.336Z,12.67
2019-05-18T08:21:53.547Z,14.83
2019-05-18T08:24:23.674Z,12.70
2019-05-18T08:26:54.336Z,11.43
2019-05-18T08:29:24.035Z,11.57
2019-05-18T08:31:53.706Z,12.90
2019-05-18T08:34:23.415Z,10.50
2019-05-18T08:36:53.118Z,10.93
2019-05-18T08:40:27.415Z,9.17
2019-05-18T08:42:57.113Z,10.07
2019-05-18T08:45:26.768Z,8.63
2019-05-18T08:47:56.515Z,8.15
2019-05-18T08:50:26.182Z,9.80
2019-05-18T08:52:56.937Z,8.07
2019-05-18T08:55:26.597Z,9.47
2019-05-18T08:57:56.268Z,9.63
2019-05-18T09:00:26.223Z,10.70
2019-05-18T09:02:55.967Z,9.37
2019-05-18T09:05:25.683Z,8.95
2019-05-18T09:07:55.348Z,9.13
2019-05-18T09:10:25.108Z,8.73
2019-05-18T09:12:54.783Z,9.85
2019-05-18T09:15:24.759Z,9.88
2019-05-18T09:17:54.454Z,7.67
2019-05-18T09:20:24.225Z,10.07
2019-05-18T09:22:53.903Z,8.63
2019-05-18T09:25:23.799Z,8.68
2019-05-18T09:27:53.476Z,7.65
2019-05-18T09:30:23.224Z,7.80
2019-05-18T09:32:52.972Z,7.87
2019-05-18T09:35:22.837Z,8.53
2019-05-18T09:37:52.486Z,8.50
2019-05-18T09:40:22.314Z,8.93
2019-05-18T09:42:52.052Z,6.58
2019-05-18T09:45:23.517Z,8.73
2019-05-18T09:47:53.270Z,7.07
2019-05-18T09:50:23.083Z,7.23
2019-05-18T09:52:52.811Z,7.33
2019-05-18T09:55:22.647Z,8.03
2019-05-18T09:57:52.324Z,9.43
2019-05-18T10:00:22.576Z,7.70
2019-05-18T10:02:52.498Z,6.75
2019-05-18T10:05:22.302Z,7.07
2019-05-18T10:07:51.972Z,7.87
2019-05-18T10:10:21.709Z,7.73
2019-05-18T10:12:51.376Z,8.07
2019-05-18T10:15:21.246Z,7.80
2019-05-18T10:17:50.934Z,8.53
2019-05-18T10:20:20.930Z,7.20
2019-05-18T10:22:55.834Z,7.47
2019-05-18T10:25:22.047Z,7.75
2019-05-18T10:27:51.725Z,7.17
2019-05-18T10:30:21.854Z,7.40
2019-05-18T10:32:51.540Z,8.08
2019-05-18T10:35:21.227Z,7.75
2019-05-18T10:37:51.946Z,7.70
2019-05-18T10:40:21.722Z,7.62
2019-05-18T10:42:51.503Z,8.75
2019-05-18T10:45:21.375Z,7.58
2019-05-18T10:47:51.087Z,6.50
2019-05-18T10:50:20.746Z,6.37
2019-05-18T10:52:50.534Z,7.27
2019-05-18T10:55:20.432Z,6.97
2019-05-18T10:57:50.100Z,7.37
2019-05-18T11:00:20.143Z,7.47
2019-05-18T11:02:49.919Z,6.30
2019-05-18T11:05:20.454Z,4.83
2019-05-18T11:07:50.257Z,6.90
2019-05-18T11:10:22.579Z,5.70
2019-05-18T11:12:52.342Z,6.63
2019-05-18T11:15:23.140Z,6.03
2019-05-18T11:17:52.853Z,6.13
2019-05-18T11:20:22.815Z,6.63
2019-05-18T11:22:52.526Z,7.63
2019-05-18T11:25:22.269Z,5.53
2019-05-18T11:27:51.986Z,6.93
2019-05-18T11:30:22.044Z,5.37
2019-05-18T11:32:51.740Z,6.33
2019-05-18T11:35:21.762Z,6.43
2019-05-18T11:37:51.503Z,6.73
2019-05-18T11:40:21.630Z,6.43
2019-05-18T11:42:51.339Z,6.30
2019-05-18T11:45:21.692Z,5.30
2019-05-18T11:47:51.443Z,6.73
2019-05-18T11:50:22.380Z,6.00
2019-05-18T11:52:52.144Z,5.67
2019-05-18T11:55:22.375Z,4.97
2019-05-18T11:57:52.094Z,5.03
2019-05-18T12:00:22.834Z,5.00
2019-05-18T12:02:52.522Z,6.17
2019-05-18T12:05:22.256Z,5.57
2019-05-18T12:07:52.009Z,4.87
2019-05-18T12:10:22.033Z,3.80
2019-05-18T12:12:51.793Z,6.60
2019-05-18T12:15:22.676Z,5.83
2019-05-18T12:17:52.385Z,5.90
2019-05-18T12:20:24.209Z,5.10
2019-05-18T12:22:53.852Z,5.60
2019-05-18T12:25:23.552Z,6.67
2019-05-18T12:27:53.321Z,5.03
2019-05-18T12:30:24.237Z,5.47
2019-05-18T12:32:53.987Z,6.27
2019-05-18T12:35:23.923Z,6.97
2019-05-18T12:37:54.610Z,5.83
2019-05-18T12:40:24.894Z,5.03
2019-05-18T12:42:54.647Z,5.30
2019-05-18T12:45:24.512Z,5.37
2019-05-18T12:47:54.291Z,6.13
2019-05-18T12:50:24.851Z,7.20
2019-05-18T12:52:54.531Z,5.97
2019-05-18T12:55:24.374Z,6.47
2019-05-18T12:57:54.150Z,6.70
2019-05-18T13:00:24.419Z,5.73
2019-05-18T13:02:54.114Z,6.47
2019-05-18T13:05:23.934Z,8.70
2019-05-18T13:07:53.627Z,8.93
2019-05-18T13:10:23.649Z,6.10
2019-05-18T13:12:53.326Z,5.20
2019-05-18T13:15:23.263Z,5.53
2019-05-18T13:17:52.948Z,5.80
2019-05-18T13:20:23.063Z,6.20
2019-05-18T13:22:52.756Z,5.20
2019-05-18T13:25:22.638Z,5.53
2019-05-18T13:27:52.396Z,6.37
2019-05-18T13:30:23.303Z,7.47
2019-05-18T13:32:52.994Z,5.20
2019-05-18T13:35:22.919Z,5.77
2019-05-18T13:37:52.615Z,7.47
2019-05-18T13:40:23.333Z,5.27
2019-05-18T13:42:53.011Z,5.03
2019-05-18T13:45:22.946Z,5.57
2019-05-18T13:47:52.719Z,4.40
2019-05-18T13:50:22.461Z,6.73
2019-05-18T13:52:52.262Z,4.57
2019-05-18T13:55:22.063Z,4.00
2019-05-18T13:57:51.743Z,4.20
2019-05-18T14:00:21.489Z,4.33
2019-05-18T14:02:51.313Z,5.50
2019-05-18T14:05:21.261Z,5.17
2019-05-18T14:07:50.972Z,5.73
2019-05-18T14:10:21.862Z,3.87
2019-05-18T14:12:51.586Z,4.60
2019-05-18T14:15:23.012Z,4.27
2019-05-18T14:17:53.026Z,5.57
2019-05-18T14:20:22.716Z,4.50
2019-05-18T14:22:52.376Z,3.73
2019-05-18T14:25:22.138Z,4.27
2019-05-18T14:27:51.807Z,4.73
2019-05-18T14:30:23.141Z,4.63
2019-05-18T14:32:52.793Z,3.87
2019-05-18T14:35:22.465Z,3.87
2019-05-18T14:37:52.148Z,3.87
2019-05-18T14:40:22.027Z,5.23
2019-05-18T14:42:52.674Z,4.87
2019-05-18T14:45:22.451Z,4.10
2019-05-18T14:47:52.123Z,4.30
2019-05-18T14:50:22.234Z,4.23
2019-05-18T14:52:52.009Z,3.90
2019-05-18T14:55:32.892Z,4.83
2019-05-18T14:57:53.276Z,4.20
2019-05-18T15:00:22.961Z,4.30
2019-05-18T15:02:52.618Z,4.17
2019-05-18T15:05:22.431Z,4.87
2019-05-18T15:07:52.089Z,3.97
2019-05-18T15:10:21.967Z,4.10
2019-05-18T15:12:51.935Z,4.07
2019-05-18T15:15:22.101Z,4.57
2019-05-18T15:17:51.790Z,3.90
2019-05-18T15:20:22.989Z,4.53
2019-05-18T15:22:52.656Z,6.57
2019-05-18T15:25:22.301Z,3.50
2019-05-18T15:27:52.027Z,4.20
2019-05-18T15:30:21.967Z,4.93
2019-05-18T15:32:51.630Z,4.83
2019-05-18T15:35:21.401Z,3.33
2019-05-18T15:37:51.071Z,4.20
2019-05-18T15:40:20.827Z,3.43
2019-05-18T15:42:50.599Z,3.73
2019-05-18T15:45:20.687Z,4.00
2019-05-18T15:47:50.429Z,3.60
2019-05-18T15:50:20.906Z,5.03
2019-05-18T15:52:50.621Z,4.37
2019-05-18T15:55:20.390Z,3.77
2019-05-18T15:57:50.057Z,3.20
2019-05-18T16:00:20.826Z,3.27
2019-05-18T16:02:50.473Z,6.17
2019-05-18T16:05:20.217Z,4.80
2019-05-18T16:07:49.938Z,3.70
2019-05-18T16:10:20.109Z,4.30
2019-05-18T16:12:49.791Z,3.50
2019-05-18T16:15:19.836Z,4.77
2019-05-18T16:17:49.584Z,4.10
2019-05-18T16:20:19.418Z,3.13
2019-05-18T16:22:49.434Z,3.17
2019-05-18T16:25:19.759Z,3.40
2019-05-18T16:27:49.523Z,3.43
2019-05-18T16:30:19.550Z,3.43
2019-05-18T16:32:49.331Z,3.43
2019-05-18T16:35:19.489Z,4.73
2019-05-18T16:37:49.241Z,2.80
2019-05-18T16:40:20.028Z,2.70
2019-05-18T16:42:49.670Z,3.90
2019-05-18T16:45:19.658Z,4.60
2019-05-18T16:47:49.311Z,3.77
2019-05-18T16:50:19.218Z,3.57
2019-05-18T16:52:49.927Z,4.50
2019-05-18T16:55:19.739Z,4.23
2019-05-18T16:57:49.398Z,3.37
2019-05-18T17:00:20.844Z,2.77
2019-05-18T17:02:50.636Z,3.10
2019-05-18T17:05:20.506Z,4.03
2019-05-18T17:07:50.191Z,3.80
2019-05-18T17:10:19.987Z,2.97
2019-05-18T17:12:50.203Z,3.57
2019-05-18T17:15:20.299Z,3.97
2019-05-18T17:17:49.989Z,3.87
2019-05-18T17:20:19.929Z,3.00
2019-05-18T17:22:49.706Z,3.03
2019-05-18T17:25:19.505Z,3.03
2019-05-18T17:27:49.241Z,2.63
2019-05-18T17:30:19.340Z,3.67
2019-05-18T17:32:49.073Z,5.07
2019-05-18T17:35:18.871Z,4.90
2019-05-18T17:37:48.551Z,4.27
2019-05-18T17:40:18.604Z,2.90
2019-05-18T17:42:48.444Z,4.57
2019-05-18T17:45:18.321Z,2.50
2019-05-18T17:47:48.042Z,4.27
2019-05-18T17:50:18.269Z,3.73
2019-05-18T17:52:47.958Z,2.57
2019-05-18T17:55:17.875Z,3.10
2019-05-18T17:57:47.558Z,3.40
2019-05-18T18:00:17.594Z,2.50
2019-05-18T18:02:48.243Z,2.83
2019-05-18T18:05:18.465Z,3.13
2019-05-18T18:07:48.228Z,2.77
2019-05-18T18:10:19.028Z,3.50
2019-05-18T18:12:48.789Z,3.50
2019-05-18T18:15:18.743Z,3.47
2019-05-18T18:17:48.493Z,4.57
2019-05-18T18:20:18.441Z,2.83
2019-05-18T18:22:48.122Z,3.17
2019-05-18T18:25:17.807Z,2.80
2019-05-18T18:27:47.505Z,3.57
2019-05-18T18:30:17.372Z,2.60
2019-05-18T18:32:47.036Z,4.10
2019-05-18T18:35:16.845Z,3.77
2019-05-18T18:37:46.517Z,3.80
2019-05-18T18:40:16.249Z,3.83
2019-05-18T18:42:45.965Z,2.93
2019-05-18T18:45:16.501Z,2.50
2019-05-18T18:47:46.254Z,3.13
2019-05-18T18:50:16.008Z,3.33
2019-05-18T18:52:45.692Z,2.80
2019-05-18T18:55:15.540Z,3.53
2019-05-18T18:57:45.333Z,3.73
2019-05-18T19:00:15.448Z,3.07
2019-05-18T19:02:45.087Z,3.90
2019-05-18T19:05:15.250Z,2.83
2019-05-18T19:07:45.054Z,3.80
2019-05-18T19:10:16.556Z,3.33
2019-05-18T19:12:46.304Z,4.17
2019-05-18T19:15:16.107Z,3.50
2019-05-18T19:17:45.801Z,3.43
2019-05-18T19:20:15.727Z,5.03
2019-05-18T19:22:45.426Z,3.93
2019-05-18T19:25:15.298Z,4.07
2019-05-18T19:27:54.646Z,6.20
2019-05-18T19:30:17.116Z,4.10
2019-05-18T19:32:46.773Z,4.73
2019-05-18T19:35:16.530Z,7.50
2019-05-18T19:37:46.254Z,4.87
2019-05-18T19:40:16.079Z,6.47
2019-05-18T19:42:45.755Z,5.30
2019-05-18T19:45:15.828Z,5.27
2019-05-18T19:47:45.523Z,5.67
2019-05-18T19:50:15.417Z,5.67
2019-05-18T19:52:45.124Z,7.10
2019-05-18T19:55:14.944Z,20.00
2019-05-18T19:57:44.635Z,24.43
2019-05-18T20:00:15.737Z,6.90
2019-05-18T20:02:45.443Z,4.63
2019-05-18T20:05:15.409Z,6.33
2019-05-18T20:07:45.130Z,5.93
2019-05-18T20:10:14.964Z,5.40
2019-05-18T20:12:44.751Z,7.33
2019-05-18T20:15:14.819Z,5.23
2019-05-18T20:17:44.511Z,6.23
2019-05-18T20:20:14.733Z,6.30
2019-05-18T20:22:44.450Z,5.80
2019-05-18T20:25:14.540Z,5.80
2019-05-18T20:31:21.284Z,4.70
2019-05-18T20:33:51.571Z,5.50
2019-05-18T20:36:21.325Z,5.83
2019-05-18T20:38:51.178Z,8.37
2019-05-18T20:41:20.860Z,6.03
2019-05-18T20:43:50.637Z,7.53
2019-05-18T20:46:20.361Z,6.50
2019-05-18T20:48:51.308Z,5.07
2019-05-18T20:51:56.889Z,5.30
2019-05-18T20:54:26.674Z,7.60
2019-05-18T20:56:56.555Z,6.60
2019-05-18T20:59:26.393Z,5.13
2019-05-18T21:01:57.235Z,5.17
2019-05-18T21:04:27.126Z,7.20
2019-05-18T21:06:56.906Z,5.53
2019-05-18T21:09:26.867Z,6.93
2019-05-18T21:11:56.749Z,8.83
2019-05-18T21:14:26.647Z,7.73
2019-05-18T21:16:56.394Z,9.07
2019-05-18T21:19:26.311Z,8.33
2019-05-18T21:21:56.145Z,8.13
2019-05-18T21:24:25.916Z,7.00
2019-05-18T21:26:55.675Z,8.00
2019-05-18T21:29:25.462Z,8.50
2019-05-18T21:31:55.341Z,7.33
2019-05-18T21:34:25.112Z,8.80
2019-05-18T21:36:55.919Z,7.77
2019-05-18T21:39:25.823Z,7.80
2019-05-18T21:41:55.563Z,8.27
2019-05-18T21:44:25.378Z,8.77
2019-05-18T21:46:55.125Z,9.43
2019-05-18T21:49:24.980Z,8.83
2019-05-18T21:51:54.871Z,8.83
2019-05-18T21:54:24.603Z,7.50
2019-05-18T21:56:54.371Z,9.97
2019-05-18T21:59:24.223Z,9.30
2019-05-18T22:01:54.039Z,8.80
2019-05-18T22:04:23.832Z,10.50
2019-05-18T22:06:53.610Z,10.47
2019-05-18T22:09:23.489Z,10.17
2019-05-18T22:11:53.299Z,9.97
2019-05-18T22:14:23.129Z,11.17
2019-05-18T22:16:52.913Z,11.97
2019-05-18T22:19:22.808Z,11.03
2019-05-18T22:21:52.695Z,10.17
2019-05-18T22:24:22.502Z,12.60
2019-05-18T22:26:52.275Z,9.10
2019-05-18T22:29:22.116Z,9.17
2019-05-18T22:31:51.807Z,10.03
2019-05-18T22:34:21.742Z,7.67
2019-05-18T22:36:51.496Z,7.97
2019-05-18T22:39:21.313Z,8.43
2019-05-18T22:41:51.087Z,6.87
2019-05-18T22:44:20.820Z,10.00
2019-05-18T22:46:50.529Z,8.17
2019-05-18T22:49:20.310Z,10.10
2019-05-18T22:51:50.074Z,9.83
2019-05-18T22:54:19.911Z,10.90
2019-05-18T22:56:50.880Z,14.13
2019-05-18T22:59:20.593Z,8.10
2019-05-18T23:01:50.436Z,10.17
2019-05-18T23:04:20.199Z,11.00
2019-05-18T23:06:49.928Z,9.83
2019-05-18T23:09:19.790Z,8.77
2019-05-18T23:11:49.676Z,11.10
2019-05-18T23:14:19.403Z,10.47
2019-05-18T23:16:49.211Z,10.67
2019-05-18T23:19:19.058Z,11.27
2019-05-18T23:21:48.886Z,11.37
2019-05-18T23:24:18.762Z,10.87
2019-05-18T23:26:48.540Z,12.73
2019-05-18T23:29:18.365Z,14.20
2019-05-18T23:31:48.281Z,13.93
2019-05-18T23:34:19.073Z,14.43
2019-05-18T23:36:48.827Z,14.17
2019-05-18T23:39:18.661Z,12.33
2019-05-18T23:41:48.596Z,13.80
2019-05-18T23:44:18.479Z,10.83
2019-05-18T23:46:48.390Z,10.10
2019-05-18T23:49:18.277Z,11.23
2019-05-18T23:51:48.057Z,9.70
2019-05-18T23:54:17.807Z,12.47
2019-05-18T23:56:47.533Z,10.37
2019-05-18T23:59:17.379Z,10.30
